Time;durP1;ratioP1;P1;durP2;ratioP2;P2;SDS_P1;SDS_P2;PMS_P1;PMS_P2;Temp;Humidity;BMP_temperature;BMP_pressure;BME280_temperature;BME280_humidity;BME280_pressure;Samples;Min_cycle;Max_cycle;Signal;HPM_P1;HPM_P2
2023/09/19 00:00:57;;;;;;;1.50;0.97;;;16.90;99.90;;;;;;5082373;28;20242;-50
2023/09/19 00:03:25;;;;;;;1.13;1.03;;;16.90;99.90;;;;;;5080022;28;20210;-48
2023/09/19 00:05:55;;;;;;;2.90;1.27;;;16.90;99.90;;;;;;5052440;28;20218;-50
2023/09/19 00:08:24;;;;;;;3.23;1.10;;;16.90;99.90;;;;;;5079533;28;20910;-48
2023/09/19 00:10:53;;;;;;;1.27;1.03;;;16.80;99.90;;;;;;5081693;28;20259;-50
2023/09/19 00:13:20;;;;;;;3.40;1.20;;;16.80;99.90;;;;;;5077751;28;20186;-49
2023/09/19 00:15:49;;;;;;;3.93;1.17;;;16.80;99.90;;;;;;5082775;28;20555;-48
2023/09/19 00:18:17;;;;;;;2.00;1.37;;;16.80;99.90;;;;;;5078519;28;20201;-50
2023/09/19 00:20:47;;;;;;;1.83;1.53;;;16.70;99.90;;;;;;5051546;28;20220;-53
2023/09/19 00:23:15;;;;;;;2.30;1.20;;;16.70;99.90;;;;;;5078761;28;20944;-48
2023/09/19 00:25:42;;;;;;;1.83;1.33;;;16.70;99.90;;;;;;5082289;28;20263;-50
2023/09/19 00:28:10;;;;;;;2.03;1.50;;;16.70;99.90;;;;;;5078082;28;20733;-51
2023/09/19 00:30:38;;;;;;;2.83;1.40;;;16.70;99.90;;;;;;5069281;28;20213;-47
2023/09/19 00:33:07;;;;;;;1.40;1.03;;;16.60;99.90;;;;;;5078581;28;20239;-51
2023/09/19 00:35:34;;;;;;;2.33;1.10;;;16.60;99.90;;;;;;5051299;28;20699;-47
2023/09/19 00:38:01;;;;;;;2.57;1.87;;;16.60;99.90;;;;;;5079072;28;20858;-48
2023/09/19 00:40:30;;;;;;;2.60;1.30;;;16.60;99.90;;;;;;5082223;28;20204;-48
2023/09/19 00:42:59;;;;;;;2.10;1.50;;;16.60;99.90;;;;;;5077197;28;20213;-47
2023/09/19 00:45:28;;;;;;;1.80;1.27;;;16.60;99.90;;;;;;5082037;28;20811;-48
2023/09/19 00:47:56;;;;;;;3.13;1.53;;;16.70;99.90;;;;;;5075600;28;20209;-47
2023/09/19 00:50:27;;;;;;;1.70;1.30;;;16.60;99.90;;;;;;5082274;28;20194;-49
2023/09/19 00:52:57;;;;;;;3.43;1.60;;;16.60;99.90;;;;;;5046543;28;20198;-52
2023/09/19 00:55:25;;;;;;;2.40;1.53;;;16.60;99.90;;;;;;5080892;28;20220;-52
2023/09/19 00:57:54;;;;;;;3.93;1.37;;;16.60;99.90;;;;;;5076948;28;20198;-47
2023/09/19 01:00:21;;;;;;;3.43;2.00;;;16.60;99.90;;;;;;5080927;28;20667;-51
2023/09/19 01:02:48;;;;;;;3.00;1.70;;;16.60;99.90;;;;;;5078142;28;20209;-51
2023/09/19 01:05:16;;;;;;;5.13;2.07;;;16.60;99.90;;;;;;5081023;28;20221;-49
2023/09/19 01:07:45;;;;;;;4.33;2.10;;;16.70;99.90;;;;;;5048780;28;20259;-51
2023/09/19 01:10:14;;;;;;;2.70;1.60;;;16.60;99.90;;;;;;5081210;28;20244;-50
2023/09/19 01:12:52;;;;;;;1.70;1.60;;;16.70;99.90;;;;;;5083832;28;20259;-50
2023/09/19 01:15:29;;;;;;;2.20;1.60;;;16.70;99.90;;;;;;5084430;28;20288;-49
2023/09/19 01:18:04;;;;;;;1.97;1.77;;;16.70;99.90;;;;;;5080780;28;20196;-47
2023/09/19 01:20:40;;;;;;;5.10;2.30;;;16.60;99.90;;;;;;5086273;28;20192;-48
2023/09/19 01:23:15;;;;;;;2.77;1.90;;;16.60;99.90;;;;;;5050009;28;20213;-50
2023/09/19 01:26:08;;;;;;;4.67;1.90;;;16.60;99.90;;;;;;5082750;28;20208;-49
2023/09/19 01:28:47;;;;;;;4.23;2.20;;;16.60;99.90;;;;;;5100281;28;20191;-49
2023/09/19 01:31:19;;;;;;;3.63;2.00;;;16.60;99.90;;;;;;5084982;28;20201;-51
2023/09/19 01:34:00;;;;;;;3.57;2.10;;;16.50;99.90;;;;;;5082843;28;20213;-50
2023/09/19 01:36:34;;;;;;;3.80;2.10;;;16.50;99.90;;;;;;5085028;28;20719;-53
2023/09/19 01:39:05;;;;;;;3.77;2.40;;;16.50;99.90;;;;;;5055351;28;20201;-50
2023/09/19 01:41:49;;;;;;;5.03;2.10;;;16.50;99.90;;;;;;5084662;28;20271;-48
2023/09/19 01:44:22;;;;;;;2.57;1.80;;;16.50;99.90;;;;;;5084479;28;20201;-50
2023/09/19 01:46:50;;;;;;;3.43;2.20;;;16.50;99.90;;;;;;5078970;28;20186;-50
2023/09/19 01:49:28;;;;;;;3.23;2.17;;;16.50;99.90;;;;;;5085816;28;20205;-49
2023/09/19 01:52:06;;;;;;;2.10;1.50;;;16.50;99.90;;;;;;5051561;28;20218;-50
2023/09/19 01:54:40;;;;;;;4.80;1.93;;;16.40;99.90;;;;;;5086031;28;20222;-45
2023/09/19 01:57:14;;;;;;;3.77;1.97;;;16.40;99.90;;;;;;5082492;28;20197;-49
2023/09/19 01:59:49;;;;;;;2.53;1.70;;;16.40;99.90;;;;;;5082028;28;20594;-47
2023/09/19 02:02:18;;;;;;;4.60;2.23;;;16.40;99.90;;;;;;5084922;28;20217;-48
2023/09/19 02:04:45;;;;;;;3.27;2.20;;;16.40;99.90;;;;;;5081737;28;20206;-47
2023/09/19 02:07:13;;;;;;;3.77;1.90;;;16.40;99.90;;;;;;5082735;28;20255;-47
2023/09/19 02:09:42;;;;;;;3.23;1.67;;;16.40;99.90;;;;;;5053124;28;20202;-49
2023/09/19 02:12:10;;;;;;;2.27;1.67;;;16.30;99.90;;;;;;5081822;28;20191;-48
2023/09/19 02:14:37;;;;;;;1.63;1.53;;;16.30;99.90;;;;;;5084152;28;20204;-50
2023/09/19 02:17:11;;;;;;;3.23;1.43;;;16.30;99.90;;;;;;5082515;28;20190;-48
2023/09/19 02:19:40;;;;;;;2.60;1.20;;;16.30;99.90;;;;;;5083523;28;20841;-48
2023/09/19 02:22:10;;;;;;;2.63;1.70;;;16.30;99.90;;;;;;5081031;28;20194;-48
2023/09/19 02:24:37;;;;;;;3.57;1.53;;;16.20;99.90;;;;;;5052566;28;20210;-49
2023/09/19 02:27:05;;;;;;;3.13;1.50;;;16.20;99.90;;;;;;5080951;28;20284;-46
2023/09/19 02:29:34;;;;;;;2.77;1.57;;;16.20;99.90;;;;;;5083476;28;20198;-46
2023/09/19 02:32:02;;;;;;;3.70;1.37;;;16.20;99.90;;;;;;5062360;28;20198;-50
2023/09/19 02:34:30;;;;;;;3.37;1.57;;;16.20;99.90;;;;;;5080098;28;20343;-47
2023/09/19 02:36:58;;;;;;;6.27;1.70;;;16.20;99.90;;;;;;5084005;28;20182;-47
2023/09/19 02:39:26;;;;;;;2.33;1.43;;;16.10;99.90;;;;;;5049135;28;20732;-47
2023/09/19 02:41:53;;;;;;;3.03;1.43;;;16.10;99.90;;;;;;5085227;28;20193;-50
2023/09/19 02:44:20;;;;;;;5.07;2.20;;;16.00;99.90;;;;;;5080909;28;20703;-46
2023/09/19 02:46:48;;;;;;;5.70;2.20;;;16.00;99.90;;;;;;5082378;28;20312;-48
2023/09/19 02:49:15;;;;;;;5.47;1.87;;;16.00;99.90;;;;;;5082123;28;20198;-50
2023/09/19 02:51:43;;;;;;;3.37;2.10;;;16.00;99.90;;;;;;5082906;28;20941;-46
2023/09/19 02:54:12;;;;;;;2.33;1.90;;;16.00;99.90;;;;;;5082780;28;20273;-48
2023/09/19 02:56:40;;;;;;;2.67;1.93;;;16.00;99.90;;;;;;5047965;28;20292;-49
2023/09/19 02:59:09;;;;;;;3.27;1.93;;;16.00;99.90;;;;;;5083496;28;20202;-49
2023/09/19 03:01:38;;;;;;;5.10;2.13;;;16.00;99.90;;;;;;5082037;28;20185;-51
2023/09/19 03:04:06;;;;;;;5.53;1.90;;;16.00;99.90;;;;;;5083779;28;20738;-50
2023/09/19 03:06:33;;;;;;;3.17;2.17;;;16.00;99.90;;;;;;5079735;28;20218;-50
2023/09/19 03:09:00;;;;;;;3.10;1.80;;;16.00;99.90;;;;;;5082992;28;20221;-49
2023/09/19 03:11:42;;;;;;;4.17;1.77;;;16.00;99.90;;;;;;5048522;28;22165;-46
2023/09/19 03:14:10;;;;;;;4.43;1.97;;;16.00;99.90;;;;;;5077201;28;20655;-48
2023/09/19 03:16:38;;;;;;;5.70;2.50;;;16.00;99.90;;;;;;5081604;28;20280;-45
2023/09/19 03:19:05;;;;;;;4.50;1.90;;;16.00;99.90;;;;;;5082261;28;20196;-50
2023/09/19 03:21:33;;;;;;;5.07;2.17;;;16.10;99.90;;;;;;5078138;28;20272;-47
2023/09/19 03:24:00;;;;;;;3.77;1.60;;;16.00;99.90;;;;;;5083836;28;20214;-52
2023/09/19 03:26:27;;;;;;;5.30;1.70;;;16.10;99.90;;;;;;5045919;28;21243;-49
2023/09/19 03:28:55;;;;;;;3.57;1.53;;;16.00;99.90;;;;;;5080487;28;20700;-49
2023/09/19 03:31:23;;;;;;;7.37;1.83;;;16.00;99.90;;;;;;5079627;28;20244;-49
2023/09/19 03:33:50;;;;;;;2.40;1.30;;;16.00;99.90;;;;;;5082897;28;20269;-51
2023/09/19 03:36:16;;;;;;;3.27;1.57;;;16.10;99.90;;;;;;5079521;28;20214;-48
2023/09/19 03:38:44;;;;;;;2.03;1.53;;;16.00;99.90;;;;;;5080978;28;20209;-46
2023/09/19 03:41:14;;;;;;;2.90;1.60;;;16.00;99.90;;;;;;5068339;28;20197;-51
2023/09/19 03:43:41;;;;;;;3.90;1.40;;;16.00;99.90;;;;;;5089562;27;20458;-48
2023/09/19 03:46:09;;;;;;;6.30;1.50;;;16.00;99.90;;;;;;5079968;28;20214;-51
2023/09/19 03:48:39;;;;;;;4.90;2.60;;;16.00;99.90;;;;;;5079860;28;20194;-48
2023/09/19 03:51:06;;;;;;;4.47;1.57;;;16.00;99.90;;;;;;5068235;28;20210;-49
2023/09/19 03:53:33;;;;;;;5.47;1.57;;;15.90;99.90;;;;;;5081896;28;20186;-46
2023/09/19 03:56:01;;;;;;;4.10;1.70;;;15.90;99.90;;;;;;5077677;28;20565;-45
2023/09/19 03:58:29;;;;;;;3.50;1.90;;;15.90;99.90;;;;;;5042595;28;20213;-52
2023/09/19 04:00:56;;;;;;;4.53;1.73;;;15.90;99.90;;;;;;5080163;28;20198;-47
2023/09/19 04:03:34;;;;;;;1.73;1.40;;;15.90;99.90;;;;;;5079760;28;20216;-53
2023/09/19 04:06:01;;;;;;;4.30;1.80;;;15.90;99.90;;;;;;5078406;28;20220;-49
2023/09/19 04:08:29;;;;;;;5.40;1.67;;;15.90;99.90;;;;;;5081702;28;20276;-47
2023/09/19 04:10:56;;;;;;;8.40;1.30;;;15.90;99.90;;;;;;5081417;28;20192;-50
2023/09/19 04:13:23;;;;;;;4.23;1.80;;;15.90;99.90;;;;;;5039644;28;20206;-47
2023/09/19 04:15:50;;;;;;;3.67;1.30;;;15.80;99.90;;;;;;5079538;28;20220;-48
2023/09/19 04:18:17;;;;;;;3.17;1.30;;;15.80;99.90;;;;;;5079533;28;20197;-49
2023/09/19 04:20:50;;;;;;;3.77;1.53;;;15.70;99.90;;;;;;5082009;28;20200;-51
2023/09/19 04:23:18;;;;;;;2.70;1.60;;;15.60;99.90;;;;;;5078117;28;20216;-48
2023/09/19 04:25:45;;;;;;;2.37;1.43;;;15.60;99.90;;;;;;5082431;28;20303;-48
2023/09/19 04:28:12;;;;;;;2.80;1.37;;;15.60;99.90;;;;;;5045734;28;21856;-50
2023/09/19 04:30:40;;;;;;;2.80;1.50;;;15.50;99.90;;;;;;5081604;28;20201;-48
2023/09/19 04:33:07;;;;;;;3.00;1.43;;;15.50;99.90;;;;;;5078803;28;20269;-48
2023/09/19 04:35:35;;;;;;;3.40;1.70;;;15.40;99.90;;;;;;5082504;28;20209;-46
2023/09/19 04:38:06;;;;;;;3.50;1.13;;;15.40;99.90;;;;;;5079509;28;20233;-48
2023/09/19 04:40:33;;;;;;;3.37;1.40;;;15.30;99.90;;;;;;5081318;28;20255;-48
2023/09/19 04:43:00;;;;;;;5.13;1.50;;;15.30;99.90;;;;;;5077898;28;20214;-48
2023/09/19 04:45:29;;;;;;;2.77;1.20;;;15.30;99.90;;;;;;5050978;28;20222;-53
2023/09/19 04:47:56;;;;;;;6.53;1.33;;;15.20;99.90;;;;;;5080823;28;20194;-47
2023/09/19 04:50:23;;;;;;;5.67;1.50;;;15.20;99.90;;;;;;5080397;28;20190;-48
2023/09/19 04:52:51;;;;;;;4.37;1.43;;;15.20;99.90;;;;;;5079437;28;20667;-47
2023/09/19 04:55:20;;;;;;;6.73;1.50;;;15.10;99.90;;;;;;5077505;28;20206;-53
2023/09/19 04:57:47;;;;;;;4.33;1.23;;;15.00;99.90;;;;;;5078312;28;20205;-53
2023/09/19 05:00:16;;;;;;;4.90;1.93;;;15.00;99.90;;;;;;5046277;28;21614;-46
2023/09/19 05:02:44;;;;;;;5.57;1.60;;;15.00;99.90;;;;;;5081837;28;20205;-50
2023/09/19 05:05:11;;;;;;;7.40;1.27;;;15.00;99.90;;;;;;5071661;28;20225;-46
2023/09/19 05:07:40;;;;;;;3.53;1.30;;;14.90;99.90;;;;;;5081725;28;20204;-46
2023/09/19 05:10:08;;;;;;;9.73;1.93;;;14.90;99.90;;;;;;5076994;28;20208;-48
2023/09/19 05:12:36;;;;;;;3.57;1.27;;;14.90;99.90;;;;;;5081647;28;20220;-47
2023/09/19 05:15:03;;;;;;;8.67;2.17;;;14.80;99.90;;;;;;5067896;28;20245;-53
2023/09/19 05:17:31;;;;;;;5.83;1.57;;;14.80;99.90;;;;;;5049321;28;20205;-51
2023/09/19 05:19:58;;;;;;;4.60;1.93;;;14.80;99.90;;;;;;5071295;28;20198;-50
2023/09/19 05:22:25;;;;;;;6.67;1.73;;;14.80;99.90;;;;;;5081789;28;20217;-50
2023/09/19 05:24:52;;;;;;;4.50;1.33;;;14.80;99.90;;;;;;5078083;28;20209;-51
2023/09/19 05:27:20;;;;;;;4.90;1.30;;;14.70;99.90;;;;;;5079288;28;20189;-51
2023/09/19 05:29:50;;;;;;;4.53;1.20;;;14.70;99.90;;;;;;5077912;28;20668;-50
2023/09/19 05:32:17;;;;;;;4.70;1.80;;;14.70;99.90;;;;;;5033507;28;20245;-46
2023/09/19 05:34:44;;;;;;;4.37;1.40;;;14.70;99.90;;;;;;5056502;28;21556;-48
2023/09/19 05:37:11;;;;;;;6.93;1.20;;;14.70;99.90;;;;;;5081532;28;20281;-47
2023/09/19 05:39:38;;;;;;;5.50;1.50;;;14.60;99.90;;;;;;5078961;28;20283;-48
2023/09/19 05:42:05;;;;;;;7.00;1.53;;;14.60;99.90;;;;;;5081667;28;20202;-50
2023/09/19 05:44:33;;;;;;;5.63;1.90;;;14.60;99.90;;;;;;5076085;28;20217;-47
2023/09/19 05:47:01;;;;;;;3.60;1.27;;;14.60;99.90;;;;;;5081634;28;20198;-50
2023/09/19 05:49:28;;;;;;;6.87;2.03;;;14.60;99.90;;;;;;5037186;28;20201;-51
2023/09/19 05:51:56;;;;;;;4.57;1.70;;;14.60;99.90;;;;;;5075225;28;20202;-49
2023/09/19 05:54:23;;;;;;;2.50;1.57;;;14.60;99.90;;;;;;5078890;28;20194;-51
2023/09/19 05:56:53;;;;;;;2.80;1.20;;;14.60;99.90;;;;;;5071358;28;20205;-50
2023/09/19 05:59:20;;;;;;;7.17;1.37;;;14.60;99.90;;;;;;5080315;28;20202;-47
2023/09/19 06:01:47;;;;;;;7.53;1.90;;;14.60;99.90;;;;;;5075584;28;20209;-50
2023/09/19 06:04:15;;;;;;;3.73;1.43;;;14.70;99.90;;;;;;5039645;28;20222;-54
2023/09/19 06:06:42;;;;;;;3.77;1.40;;;14.70;99.90;;;;;;5063285;28;20262;-54
2023/09/19 06:09:09;;;;;;;3.53;1.47;;;14.80;99.90;;;;;;5078983;28;20212;-55
2023/09/19 06:11:36;;;;;;;2.67;1.30;;;14.90;99.90;;;;;;5069200;28;20208;-55
2023/09/19 06:14:03;;;;;;;3.30;1.20;;;14.90;99.90;;;;;;5074996;28;20941;-56
2023/09/19 06:16:32;;;;;;;4.10;1.60;;;15.00;99.90;;;;;;5085210;28;20635;-49
2023/09/19 06:18:59;;;;;;;4.40;1.53;;;15.10;99.90;;;;;;5045837;28;20221;-50
2023/09/19 06:21:28;;;;;;;4.23;1.63;;;15.10;99.90;;;;;;5070167;28;20201;-55
2023/09/19 06:23:55;;;;;;;4.67;1.43;;;15.20;99.90;;;;;;5069782;28;20202;-52
2023/09/19 06:26:23;;;;;;;2.27;1.00;;;15.20;99.90;;;;;;5061261;28;20640;-52
2023/09/19 06:28:50;;;;;;;3.50;0.97;;;15.20;99.90;;;;;;5076988;28;20205;-53
2023/09/19 06:31:16;;;;;;;2.70;1.30;;;15.20;99.90;;;;;;5077676;28;20567;-53
2023/09/19 06:33:44;;;;;;;2.70;1.30;;;15.20;99.90;;;;;;5081575;28;20290;-50
2023/09/19 06:36:11;;;;;;;5.93;1.57;;;15.20;99.90;;;;;;5051135;28;20221;-49
2023/09/19 06:38:39;;;;;;;7.60;1.50;;;15.20;99.90;;;;;;5070432;28;20186;-50
2023/09/19 06:41:07;;;;;;;5.17;1.40;;;15.30;99.90;;;;;;5085071;28;20190;-49
2023/09/19 06:43:34;;;;;;;8.93;2.40;;;15.20;99.90;;;;;;5058231;28;20198;-49
2023/09/19 06:46:01;;;;;;;4.83;1.37;;;15.30;99.90;;;;;;5076041;28;20225;-50
2023/09/19 06:48:29;;;;;;;4.43;1.73;;;15.30;99.90;;;;;;5080529;28;20186;-50
2023/09/19 06:50:58;;;;;;;4.83;2.00;;;15.30;99.90;;;;;;5052538;28;20201;-49
2023/09/19 06:53:25;;;;;;;4.13;1.70;;;15.40;99.90;;;;;;5071851;28;20214;-51
2023/09/19 06:55:54;;;;;;;4.67;1.40;;;15.40;99.90;;;;;;5082576;28;20210;-46
2023/09/19 06:58:21;;;;;;;8.97;1.90;;;15.40;99.90;;;;;;5066814;28;20638;-53
2023/09/19 07:00:49;;;;;;;7.37;1.70;;;15.40;99.90;;;;;;5063223;28;20302;-48
2023/09/19 07:03:18;;;;;;;9.13;1.70;;;15.40;99.90;;;;;;5083361;28;20190;-47
2023/09/19 07:05:45;;;;;;;4.63;1.77;;;15.50;99.90;;;;;;5049251;28;20221;-52
2023/09/19 07:08:12;;;;;;;6.43;1.77;;;15.40;99.90;;;;;;5072462;28;20206;-53
2023/09/19 07:10:40;;;;;;;6.67;1.83;;;15.50;99.90;;;;;;5080819;28;20198;-50
2023/09/19 07:13:10;;;;;;;4.67;1.73;;;15.50;99.90;;;;;;5083220;28;20195;-48
2023/09/19 07:15:41;;;;;;;8.80;1.87;;;15.50;99.90;;;;;;5058066;28;20216;-50
2023/09/19 07:18:10;;;;;;;5.73;1.70;;;15.60;99.90;;;;;;5069716;28;20198;-47
2023/09/19 07:20:38;;;;;;;4.57;1.80;;;15.60;99.90;;;;;;5048434;28;20241;-47
2023/09/19 07:23:06;;;;;;;5.70;1.80;;;15.60;99.90;;;;;;5075405;28;20198;-53
2023/09/19 07:25:32;;;;;;;10.57;2.00;;;15.70;99.90;;;;;;5079453;28;20289;-52
2023/09/19 07:28:00;;;;;;;2.83;1.47;;;15.70;99.90;;;;;;5069044;28;20194;-48
2023/09/19 07:30:28;;;;;;;9.73;2.23;;;15.70;99.90;;;;;;5061481;28;20198;-51
2023/09/19 07:32:55;;;;;;;3.87;1.57;;;15.70;99.90;;;;;;5068849;28;20202;-49
2023/09/19 07:35:22;;;;;;;8.30;2.07;;;15.70;99.90;;;;;;5081419;28;20213;-49
2023/09/19 07:37:51;;;;;;;5.00;1.87;;;15.70;99.90;;;;;;5041267;28;20219;-54
2023/09/19 07:40:18;;;;;;;6.90;1.60;;;15.70;99.90;;;;;;5081440;28;20209;-48
2023/09/19 07:42:46;;;;;;;4.50;1.47;;;15.70;99.90;;;;;;5082179;28;20194;-50
2023/09/19 07:45:14;;;;;;;6.40;1.87;;;15.80;99.90;;;;;;5062954;28;20227;-49
2023/09/19 07:47:45;;;;;;;7.03;1.93;;;15.70;99.90;;;;;;5082541;28;20198;-49
2023/09/19 07:50:12;;;;;;;5.63;1.80;;;15.80;99.90;;;;;;5075705;28;20272;-48
2023/09/19 07:52:39;;;;;;;5.37;1.53;;;15.70;99.90;;;;;;5051395;28;20241;-51
2023/09/19 07:55:09;;;;;;;6.37;1.77;;;15.70;99.90;;;;;;5069689;28;20217;-50
2023/09/19 07:57:37;;;;;;;7.33;1.83;;;15.70;99.90;;;;;;5083201;28;20271;-48
2023/09/19 08:00:06;;;;;;;6.10;1.40;;;15.70;99.90;;;;;;5062911;28;20203;-50
2023/09/19 08:02:38;;;;;;;5.50;1.80;;;15.70;99.90;;;;;;5083351;28;20601;-48
2023/09/19 08:05:09;;;;;;;6.53;1.70;;;15.70;99.90;;;;;;5079070;28;20218;-54
2023/09/19 08:07:37;;;;;;;4.33;1.50;;;15.70;99.90;;;;;;5048124;28;20219;-53
2023/09/19 08:10:07;;;;;;;9.57;1.80;;;15.70;99.90;;;;;;5069962;28;20209;-50
2023/09/19 08:12:35;;;;;;;4.10;1.37;;;15.70;99.90;;;;;;5082242;28;20194;-53
2023/09/19 08:15:02;;;;;;;3.47;1.37;;;15.70;99.90;;;;;;5079211;28;20218;-50
2023/09/19 08:17:29;;;;;;;3.07;1.40;;;15.70;99.90;;;;;;5060622;28;20255;-48
2023/09/19 08:19:56;;;;;;;5.53;1.60;;;15.70;99.90;;;;;;5078284;28;20208;-51
2023/09/19 08:22:25;;;;;;;3.27;1.37;;;15.70;99.90;;;;;;5051802;28;20285;-48
2023/09/19 08:24:52;;;;;;;3.53;1.67;;;15.80;99.90;;;;;;5072762;28;20612;-51
2023/09/19 08:27:19;;;;;;;6.77;1.60;;;15.80;99.90;;;;;;5079249;28;20263;-50
2023/09/19 08:29:47;;;;;;;6.20;1.70;;;15.90;99.90;;;;;;5080984;28;20251;-51
2023/09/19 08:32:14;;;;;;;5.03;1.70;;;15.90;99.90;;;;;;5064020;28;20194;-49
2023/09/19 08:34:41;;;;;;;5.80;2.27;;;15.90;99.90;;;;;;5080888;28;20190;-50
2023/09/19 08:37:08;;;;;;;6.57;1.97;;;15.90;99.90;;;;;;5046968;28;20202;-49
2023/09/19 08:39:37;;;;;;;6.73;1.63;;;16.00;99.90;;;;;;5081207;28;20206;-49
2023/09/19 08:42:05;;;;;;;4.57;1.87;;;16.00;99.90;;;;;;5069459;28;20213;-52
2023/09/19 08:44:40;;;;;;;7.83;2.70;;;15.90;99.90;;;;;;5080621;28;20263;-49
2023/09/19 08:47:11;;;;;;;5.90;2.10;;;15.90;99.90;;;;;;5060436;28;20233;-51
2023/09/19 08:49:46;;;;;;;6.73;1.83;;;15.90;99.90;;;;;;5082085;28;20194;-51
2023/09/19 08:52:26;;;;;;;7.93;2.00;;;15.90;99.90;;;;;;5048613;28;20233;-48
2023/09/19 08:54:58;;;;;;;5.10;2.00;;;15.90;99.90;;;;;;5077868;28;20209;-48
2023/09/19 08:57:29;;;;;;;6.37;2.37;;;15.90;99.90;;;;;;5057118;28;20232;-54
2023/09/19 08:59:58;;;;;;;6.50;1.73;;;15.90;99.90;;;;;;5081541;28;20218;-51
2023/09/19 09:02:27;;;;;;;7.60;2.33;;;15.90;99.90;;;;;;5060629;28;20222;-50
2023/09/19 09:04:55;;;;;;;4.43;1.80;;;15.90;99.90;;;;;;5078622;28;20221;-51
2023/09/19 09:07:22;;;;;;;5.30;1.60;;;16.00;99.90;;;;;;5049234;28;20255;-51
2023/09/19 09:09:49;;;;;;;3.73;1.23;;;16.00;99.90;;;;;;5069106;28;20206;-51
2023/09/19 09:12:18;;;;;;;3.27;1.97;;;16.10;99.90;;;;;;5070505;28;20233;-50
2023/09/19 09:14:49;;;;;;;6.27;2.27;;;16.10;99.90;;;;;;5080233;28;20198;-48
2023/09/19 09:17:20;;;;;;;5.97;1.67;;;16.10;99.90;;;;;;5078586;28;20194;-51
2023/09/19 09:19:47;;;;;;;6.50;2.03;;;16.10;99.90;;;;;;5063140;28;20213;-50
2023/09/19 09:22:14;;;;;;;4.27;1.87;;;16.20;99.90;;;;;;5080180;28;20209;-50
2023/09/19 09:24:53;;;;;;;5.77;2.07;;;16.20;99.90;;;;;;5048120;28;20217;-50
2023/09/19 09:27:23;;;;;;;9.00;2.40;;;16.30;99.90;;;;;;5069550;28;20206;-52
2023/09/19 09:29:51;;;;;;;6.87;1.67;;;16.30;99.90;;;;;;5080558;28;20205;-49
2023/09/19 09:32:20;;;;;;;6.47;1.60;;;16.40;99.90;;;;;;5078782;28;20198;-51
2023/09/19 09:34:49;;;;;;;6.67;1.70;;;16.50;99.90;;;;;;5068996;28;20213;-52
2023/09/19 09:37:16;;;;;;;5.93;1.87;;;16.50;99.90;;;;;;5083790;28;20190;-53
2023/09/19 09:39:51;;;;;;;4.47;2.43;;;16.60;99.90;;;;;;5052141;28;20210;-47
2023/09/19 09:42:32;;;;;;;7.63;1.70;;;16.70;99.90;;;;;;5075875;28;20738;-53
2023/09/19 09:45:17;;;;;;;7.70;1.77;;;16.80;99.90;;;;;;5084384;28;20574;-49
2023/09/19 09:47:54;;;;;;;5.73;2.10;;;16.80;99.90;;;;;;5083104;28;20550;-49
2023/09/19 09:50:39;;;;;;;6.33;1.60;;;16.80;99.90;;;;;;5068790;28;20556;-51
2023/09/19 09:53:21;;;;;;;6.27;1.90;;;16.90;99.90;;;;;;5077854;28;20247;-52
2023/09/19 09:56:06;;;;;;;5.30;1.70;;;16.90;99.90;;;;;;5050719;28;20221;-49
2023/09/19 09:58:35;;;;;;;6.97;1.60;;;17.00;99.90;;;;;;5073470;28;20198;-50
2023/09/19 10:01:08;;;;;;;6.23;1.43;;;17.00;99.90;;;;;;5083071;28;20293;-49
2023/09/19 10:03:41;;;;;;;7.13;2.10;;;17.10;99.90;;;;;;5081850;28;20924;-48
2023/09/19 10:09:11;;;;;;;3.07;1.40;;;17.20;99.90;;;;;;5081211;28;20202;-50
2023/09/19 10:11:44;;;;;;;4.83;1.63;;;17.30;99.90;;;;;;5049620;28;20186;-48
2023/09/19 10:14:13;;;;;;;5.13;1.20;;;17.40;99.90;;;;;;5071553;28;20210;-51
2023/09/19 10:16:47;;;;;;;4.23;1.60;;;17.40;99.90;;;;;;5081647;28;20241;-49
2023/09/19 10:19:22;;;;;;;8.93;1.93;;;17.50;99.90;;;;;;5082844;28;20213;-54
2023/09/19 10:21:50;;;;;;;8.03;2.03;;;17.50;99.90;;;;;;5074581;28;20205;-48
2023/09/19 10:24:18;;;;;;;4.77;2.03;;;17.50;99.90;;;;;;5064349;28;20210;-51
2023/09/19 10:26:50;;;;;;;5.20;1.90;;;17.50;99.90;;;;;;5048481;28;20226;-51
2023/09/19 10:29:19;;;;;;;5.10;1.33;;;17.60;99.90;;;;;;5072859;28;20228;-53
2023/09/19 10:31:50;;;;;;;5.30;1.73;;;17.70;99.90;;;;;;5082499;28;20293;-51
2023/09/19 10:34:19;;;;;;;5.77;1.40;;;17.70;99.90;;;;;;5069220;28;20200;-54
2023/09/19 10:36:47;;;;;;;2.50;1.10;;;17.70;99.90;;;;;;5073226;28;20283;-49
2023/09/19 10:39:19;;;;;;;3.77;1.30;;;17.90;99.90;;;;;;5056334;28;20217;-50
2023/09/19 10:41:53;;;;;;;6.77;1.77;;;17.90;99.90;;;;;;5047661;28;20202;-51
2023/09/19 10:44:25;;;;;;;4.43;1.47;;;17.90;99.90;;;;;;5062005;28;20281;-54
2023/09/19 10:46:53;;;;;;;4.60;2.30;;;17.90;99.90;;;;;;5082148;28;20221;-53
2023/09/19 10:49:20;;;;;;;6.93;1.80;;;17.90;99.90;;;;;;5081681;28;20202;-52
2023/09/19 10:51:49;;;;;;;4.67;1.43;;;17.90;99.90;;;;;;5074561;28;20229;-54
2023/09/19 10:54:19;;;;;;;7.97;2.50;;;18.10;99.90;;;;;;5065875;28;20285;-51
2023/09/19 10:56:50;;;;;;;11.03;1.80;;;18.20;99.90;;;;;;5076980;28;20216;-50
2023/09/19 10:59:19;;;;;;;6.10;1.40;;;18.10;99.90;;;;;;5047894;28;20210;-53
2023/09/19 11:01:51;;;;;;;5.43;1.80;;;18.10;99.90;;;;;;5076680;28;20202;-49
2023/09/19 11:04:32;;;;;;;5.73;1.20;;;18.00;99.90;;;;;;5082380;28;20190;-53
2023/09/19 11:07:04;;;;;;;3.87;1.57;;;18.10;99.90;;;;;;5073657;28;20677;-47
2023/09/19 11:09:48;;;;;;;3.70;1.60;;;18.10;99.90;;;;;;5060160;28;20185;-49
2023/09/19 11:12:49;;;;;;;3.80;1.70;;;18.10;99.90;;;;;;5074420;28;20691;-49
2023/09/19 11:16:05;;;;;;;5.33;1.53;;;18.10;99.90;;;;;;5045603;28;20267;-52
2023/09/19 11:19:07;;;;;;;9.20;1.53;;;18.00;99.90;;;;;;5033525;28;20187;-51
2023/09/19 11:21:54;;;;;;;3.50;1.50;;;17.90;99.90;;;;;;5078092;28;20841;-50
2023/09/19 11:24:36;;;;;;;4.47;1.33;;;17.90;99.90;;;;;;5073625;28;20212;-52
2023/09/19 11:27:14;;;;;;;5.37;1.70;;;17.90;99.90;;;;;;5064236;28;20222;-49
2023/09/19 11:29:41;;;;;;;4.63;1.53;;;17.90;99.90;;;;;;5045060;28;20288;-50
2023/09/19 11:32:09;;;;;;;3.23;1.40;;;18.00;99.90;;;;;;5060205;28;21429;-49
2023/09/19 11:34:45;;;;;;;7.63;1.60;;;18.00;99.90;;;;;;5082248;28;20216;-48
2023/09/19 11:38:10;;;;;;;5.40;1.40;;;18.20;99.90;;;;;;5071767;28;20209;-49
2023/09/19 11:40:37;;;;;;;5.00;2.03;;;18.30;99.90;;;;;;5079260;28;20190;-50
2023/09/19 11:43:35;;;;;;;6.70;1.63;;;18.30;99.90;;;;;;5064237;28;20222;-50
2023/09/19 11:46:06;;;;;;;7.87;2.00;;;18.40;99.90;;;;;;5036803;28;23160;-51
2023/09/19 11:48:37;;;;;;;5.63;1.47;;;18.40;99.90;;;;;;5083230;28;20218;-51
2023/09/19 11:51:18;;;;;;;7.27;1.80;;;18.40;99.90;;;;;;5080489;28;20269;-51
2023/09/19 11:53:48;;;;;;;3.93;1.63;;;18.40;99.90;;;;;;5070761;28;20210;-50
2023/09/19 11:56:17;;;;;;;3.93;1.60;;;18.40;99.90;;;;;;5076171;28;20821;-52
2023/09/19 11:58:45;;;;;;;7.53;2.00;;;18.50;99.90;;;;;;5065729;28;20276;-52
2023/09/19 12:01:19;;;;;;;8.63;2.20;;;18.60;99.90;;;;;;5049602;28;20267;-48
2023/09/19 12:03:48;;;;;;;6.23;1.53;;;18.80;99.90;;;;;;5072243;28;20198;-51
2023/09/19 12:06:17;;;;;;;2.63;1.20;;;18.90;99.90;;;;;;5080321;28;20248;-52
2023/09/19 12:08:46;;;;;;;5.83;1.57;;;18.80;99.90;;;;;;5061175;28;20194;-51
2023/09/19 12:11:15;;;;;;;4.30;1.43;;;18.90;99.90;;;;;;5059861;28;20217;-54
2023/09/19 12:13:45;;;;;;;5.23;1.63;;;18.70;99.90;;;;;;5050235;28;20210;-52
2023/09/19 12:16:16;;;;;;;6.70;1.63;;;18.70;99.90;;;;;;5049641;28;20221;-52
2023/09/19 12:18:44;;;;;;;5.30;1.77;;;18.80;99.90;;;;;;5072384;28;20206;-52
2023/09/19 12:21:24;;;;;;;5.37;1.70;;;18.80;99.90;;;;;;5079651;28;20526;-52
2023/09/19 12:23:59;;;;;;;8.47;2.13;;;18.80;99.90;;;;;;5071406;28;20202;-51
2023/09/19 12:26:28;;;;;;;3.13;1.53;;;18.70;99.90;;;;;;5075887;28;20234;-51
2023/09/19 12:28:55;;;;;;;7.83;1.90;;;18.70;99.90;;;;;;5061834;28;20208;-49
2023/09/19 12:31:22;;;;;;;4.60;1.70;;;18.70;99.90;;;;;;5030215;28;20213;-50
2023/09/19 12:33:54;;;;;;;2.93;1.57;;;18.80;99.90;;;;;;5070491;28;20635;-51
2023/09/19 12:36:29;;;;;;;9.33;1.70;;;19.00;99.90;;;;;;5075449;28;20218;-52
2023/09/19 12:38:59;;;;;;;8.10;2.23;;;19.00;99.90;;;;;;5080334;28;20276;-49
2023/09/19 12:41:26;;;;;;;8.07;2.50;;;19.10;99.90;;;;;;5077911;28;20186;-47
2023/09/19 12:43:54;;;;;;;5.53;1.73;;;19.00;99.90;;;;;;5063630;28;20279;-48
2023/09/19 12:46:25;;;;;;;7.13;1.90;;;19.10;99.90;;;;;;5036430;28;20213;-55
2023/09/19 12:49:17;;;;;;;5.93;1.70;;;19.10;99.90;;;;;;5079940;28;20208;-49
2023/09/19 12:51:46;;;;;;;10.47;2.20;;;19.10;99.90;;;;;;5079634;28;20216;-49
2023/09/19 12:54:14;;;;;;;5.30;1.80;;;19.10;99.90;;;;;;5079227;28;20186;-49
2023/09/19 12:56:44;;;;;;;10.47;2.07;;;19.20;99.90;;;;;;5080798;28;20289;-51
2023/09/19 12:59:13;;;;;;;4.70;2.30;;;19.40;99.90;;;;;;5053872;28;20206;-48
2023/09/19 13:01:43;;;;;;;8.60;2.90;;;19.40;99.90;;;;;;5032654;28;20201;-53
2023/09/19 13:04:18;;;;;;;6.07;1.83;;;19.40;99.90;;;;;;5069928;28;20198;-48